sensor_id;sensor_type;location;lat;lon;timestamp;temperature;humidity
22130;DHT22;11231;50.746;4.272;2023-04-03T00:01:32;4.30;99.90
22130;DHT22;11231;50.746;4.272;2023-04-03T00:03:57;4.50;99.90
22130;DHT22;11231;50.746;4.272;2023-04-03T00:06:24;4.60;99.90
22130;DHT22;11231;50.746;4.272;2023-04-03T00:08:50;4.70;99.90
22130;DHT22;11231;50.746;4.272;2023-04-03T00:11:17;4.70;99.90
22130;DHT22;11231;50.746;4.272;2023-04-03T00:13:43;4.70;99.90
22130;DHT22;11231;50.746;4.272;2023-04-03T00:16:10;4.70;99.90
22130;DHT22;11231;50.746;4.272;2023-04-03T00:18:36;4.70;99.90
22130;DHT22;11231;50.746;4.272;2023-04-03T00:21:03;4.70;99.90
22130;DHT22;11231;50.746;4.272;2023-04-03T00:23:29;4.70;99.90
22130;DHT22;11231;50.746;4.272;2023-04-03T00:25:55;4.60;99.90
22130;DHT22;11231;50.746;4.272;2023-04-03T00:28:21;4.60;99.90
22130;DHT22;11231;50.746;4.272;2023-04-03T00:30:49;4.60;99.90
22130;DHT22;11231;50.746;4.272;2023-04-03T00:33:15;4.50;99.90
22130;DHT22;11231;50.746;4.272;2023-04-03T00:35:42;4.40;99.90
22130;DHT22;11231;50.746;4.272;2023-04-03T00:38:08;4.30;99.90
22130;DHT22;11231;50.746;4.272;2023-04-03T00:40:38;4.20;99.90
22130;DHT22;11231;50.746;4.272;2023-04-03T00:43:16;4.30;99.90
22130;DHT22;11231;50.746;4.272;2023-04-03T00:45:45;4.30;99.90
22130;DHT22;11231;50.746;4.272;2023-04-03T00:48:20;4.40;99.90
22130;DHT22;11231;50.746;4.272;2023-04-03T00:50:46;4.40;99.90
22130;DHT22;11231;50.746;4.272;2023-04-03T00:53:18;4.50;99.90
22130;DHT22;11231;50.746;4.272;2023-04-03T00:55:48;4.50;99.90
22130;DHT22;11231;50.746;4.272;2023-04-03T00:58:16;4.60;99.90
22130;DHT22;11231;50.746;4.272;2023-04-03T01:00:48;4.70;99.90
22130;DHT22;11231;50.746;4.272;2023-04-03T01:03:17;4.80;99.90
22130;DHT22;11231;50.746;4.272;2023-04-03T01:05:42;4.70;99.90
22130;DHT22;11231;50.746;4.272;2023-04-03T01:08:08;4.70;99.90
22130;DHT22;11231;50.746;4.272;2023-04-03T01:10:34;4.70;99.90
22130;DHT22;11231;50.746;4.272;2023-04-03T01:13:00;4.70;99.90
22130;DHT22;11231;50.746;4.272;2023-04-03T01:15:27;4.70;99.90
22130;DHT22;11231;50.746;4.272;2023-04-03T01:17:58;4.70;99.90
22130;DHT22;11231;50.746;4.272;2023-04-03T01:25:53;4.50;99.90
22130;DHT22;11231;50.746;4.272;2023-04-03T01:28:26;4.50;99.90
22130;DHT22;11231;50.746;4.272;2023-04-03T01:33:42;4.50;99.90
22130;DHT22;11231;50.746;4.272;2023-04-03T01:36:08;4.60;99.90
22130;DHT22;11231;50.746;4.272;2023-04-03T01:38:34;4.70;99.90
22130;DHT22;11231;50.746;4.272;2023-04-03T01:41:00;4.70;99.90
22130;DHT22;11231;50.746;4.272;2023-04-03T01:43:26;4.70;99.90
22130;DHT22;11231;50.746;4.272;2023-04-03T01:45:52;4.70;99.90
22130;DHT22;11231;50.746;4.272;2023-04-03T01:48:20;4.60;99.90
22130;DHT22;11231;50.746;4.272;2023-04-03T01:50:45;4.60;99.90
22130;DHT22;11231;50.746;4.272;2023-04-03T01:53:12;4.50;99.90
22130;DHT22;11231;50.746;4.272;2023-04-03T01:55:38;4.40;99.90
22130;DHT22;11231;50.746;4.272;2023-04-03T01:58:04;4.50;99.90
22130;DHT22;11231;50.746;4.272;2023-04-03T02:00:30;4.50;99.90
22130;DHT22;11231;50.746;4.272;2023-04-03T02:02:56;4.50;99.90
22130;DHT22;11231;50.746;4.272;2023-04-03T02:05:22;4.50;99.90
22130;DHT22;11231;50.746;4.272;2023-04-03T02:07:48;4.50;99.90
22130;DHT22;11231;50.746;4.272;2023-04-03T02:10:14;4.40;99.90
22130;DHT22;11231;50.746;4.272;2023-04-03T02:12:41;4.40;99.90
22130;DHT22;11231;50.746;4.272;2023-04-03T02:15:07;4.30;99.90
22130;DHT22;11231;50.746;4.272;2023-04-03T02:17:35;4.30;99.90
22130;DHT22;11231;50.746;4.272;2023-04-03T02:20:01;4.40;99.90
22130;DHT22;11231;50.746;4.272;2023-04-03T02:22:26;4.40;99.90
22130;DHT22;11231;50.746;4.272;2023-04-03T02:24:52;4.40;99.90
22130;DHT22;11231;50.746;4.272;2023-04-03T02:27:19;4.50;99.90
22130;DHT22;11231;50.746;4.272;2023-04-03T02:29:45;4.30;99.90
22130;DHT22;11231;50.746;4.272;2023-04-03T02:32:11;4.40;99.90
22130;DHT22;11231;50.746;4.272;2023-04-03T02:34:37;4.50;99.90
22130;DHT22;11231;50.746;4.272;2023-04-03T02:37:03;4.60;99.90
22130;DHT22;11231;50.746;4.272;2023-04-03T02:39:29;4.40;99.90
22130;DHT22;11231;50.746;4.272;2023-04-03T02:41:57;4.40;99.90
22130;DHT22;11231;50.746;4.272;2023-04-03T02:44:24;4.40;99.90
22130;DHT22;11231;50.746;4.272;2023-04-03T02:46:51;4.40;99.90
22130;DHT22;11231;50.746;4.272;2023-04-03T02:49:17;4.30;99.90
22130;DHT22;11231;50.746;4.272;2023-04-03T02:51:43;4.40;99.90
22130;DHT22;11231;50.746;4.272;2023-04-03T02:54:10;4.30;99.90
22130;DHT22;11231;50.746;4.272;2023-04-03T02:56:38;4.20;99.90
22130;DHT22;11231;50.746;4.272;2023-04-03T02:59:07;4.30;99.90
22130;DHT22;11231;50.746;4.272;2023-04-03T03:01:36;4.30;99.90
22130;DHT22;11231;50.746;4.272;2023-04-03T03:04:01;4.20;99.90
22130;DHT22;11231;50.746;4.272;2023-04-03T03:06:27;4.20;99.90
22130;DHT22;11231;50.746;4.272;2023-04-03T03:08:53;4.20;99.90
22130;DHT22;11231;50.746;4.272;2023-04-03T03:11:20;4.20;99.90
22130;DHT22;11231;50.746;4.272;2023-04-03T03:13:46;4.20;99.90
22130;DHT22;11231;50.746;4.272;2023-04-03T03:16:12;4.10;99.90
22130;DHT22;11231;50.746;4.272;2023-04-03T03:18:37;4.10;99.90
22130;DHT22;11231;50.746;4.272;2023-04-03T03:21:04;4.10;99.90
22130;DHT22;11231;50.746;4.272;2023-04-03T03:23:31;4.10;99.90
22130;DHT22;11231;50.746;4.272;2023-04-03T03:26:06;4.10;99.90
22130;DHT22;11231;50.746;4.272;2023-04-03T03:28:34;4.10;99.90
22130;DHT22;11231;50.746;4.272;2023-04-03T03:31:01;4.10;99.90
22130;DHT22;11231;50.746;4.272;2023-04-03T03:33:27;4.10;99.90
22130;DHT22;11231;50.746;4.272;2023-04-03T03:35:53;3.90;99.90
22130;DHT22;11231;50.746;4.272;2023-04-03T03:38:20;3.90;99.90
22130;DHT22;11231;50.746;4.272;2023-04-03T03:40:49;3.90;99.90
22130;DHT22;11231;50.746;4.272;2023-04-03T03:43:18;3.90;99.90
22130;DHT22;11231;50.746;4.272;2023-04-03T03:45:51;3.80;99.90
22130;DHT22;11231;50.746;4.272;2023-04-03T03:48:17;3.70;99.90
22130;DHT22;11231;50.746;4.272;2023-04-03T03:50:43;3.60;99.90
22130;DHT22;11231;50.746;4.272;2023-04-03T03:53:09;3.50;99.90
22130;DHT22;11231;50.746;4.272;2023-04-03T03:55:35;3.40;99.90
22130;DHT22;11231;50.746;4.272;2023-04-03T03:58:00;3.30;99.90
22130;DHT22;11231;50.746;4.272;2023-04-03T04:00:28;3.20;99.90
22130;DHT22;11231;50.746;4.272;2023-04-03T04:02:56;3.30;99.90
22130;DHT22;11231;50.746;4.272;2023-04-03T04:05:23;3.30;99.90
22130;DHT22;11231;50.746;4.272;2023-04-03T04:07:48;3.30;99.90
22130;DHT22;11231;50.746;4.272;2023-04-03T04:10:15;3.40;99.90
22130;DHT22;11231;50.746;4.272;2023-04-03T04:12:43;3.40;99.90
22130;DHT22;11231;50.746;4.272;2023-04-03T04:15:09;3.40;99.90
22130;DHT22;11231;50.746;4.272;2023-04-03T04:17:36;3.50;99.90
22130;DHT22;11231;50.746;4.272;2023-04-03T04:20:04;3.40;99.90
22130;DHT22;11231;50.746;4.272;2023-04-03T04:22:32;3.40;99.90
22130;DHT22;11231;50.746;4.272;2023-04-03T04:24:58;3.40;99.90
22130;DHT22;11231;50.746;4.272;2023-04-03T04:27:24;3.40;99.90
22130;DHT22;11231;50.746;4.272;2023-04-03T04:29:50;3.40;99.90
22130;DHT22;11231;50.746;4.272;2023-04-03T04:32:17;3.50;99.90
22130;DHT22;11231;50.746;4.272;2023-04-03T04:34:42;3.40;99.90
22130;DHT22;11231;50.746;4.272;2023-04-03T04:37:08;3.40;99.90
22130;DHT22;11231;50.746;4.272;2023-04-03T04:39:34;3.50;99.90
22130;DHT22;11231;50.746;4.272;2023-04-03T04:42:01;3.50;99.90
22130;DHT22;11231;50.746;4.272;2023-04-03T04:44:30;3.50;99.90
22130;DHT22;11231;50.746;4.272;2023-04-03T04:46:55;3.50;99.90
22130;DHT22;11231;50.746;4.272;2023-04-03T04:49:21;3.50;99.90
22130;DHT22;11231;50.746;4.272;2023-04-03T04:51:47;3.50;99.90
22130;DHT22;11231;50.746;4.272;2023-04-03T04:54:13;3.50;99.90
22130;DHT22;11231;50.746;4.272;2023-04-03T04:56:39;3.50;99.90
22130;DHT22;11231;50.746;4.272;2023-04-03T04:59:06;3.50;99.90
22130;DHT22;11231;50.746;4.272;2023-04-03T05:01:32;3.40;99.90
22130;DHT22;11231;50.746;4.272;2023-04-03T05:04:06;3.40;99.90
22130;DHT22;11231;50.746;4.272;2023-04-03T05:06:32;3.40;99.90
22130;DHT22;11231;50.746;4.272;2023-04-03T05:08:59;3.40;99.90
22130;DHT22;11231;50.746;4.272;2023-04-03T05:11:25;3.40;99.90
22130;DHT22;11231;50.746;4.272;2023-04-03T05:13:52;3.40;99.90
22130;DHT22;11231;50.746;4.272;2023-04-03T05:16:18;3.50;99.90
22130;DHT22;11231;50.746;4.272;2023-04-03T05:18:43;3.50;99.90
22130;DHT22;11231;50.746;4.272;2023-04-03T05:21:16;3.60;99.90
22130;DHT22;11231;50.746;4.272;2023-04-03T05:23:44;3.60;99.90
22130;DHT22;11231;50.746;4.272;2023-04-03T05:26:10;3.50;99.90
22130;DHT22;11231;50.746;4.272;2023-04-03T05:28:36;3.50;99.90
22130;DHT22;11231;50.746;4.272;2023-04-03T05:31:02;3.50;99.90
22130;DHT22;11231;50.746;4.272;2023-04-03T05:33:33;3.50;99.90
22130;DHT22;11231;50.746;4.272;2023-04-03T05:36:04;3.60;99.90
22130;DHT22;11231;50.746;4.272;2023-04-03T05:38:32;3.60;99.90
22130;DHT22;11231;50.746;4.272;2023-04-03T05:40:59;3.60;99.90
22130;DHT22;11231;50.746;4.272;2023-04-03T05:43:25;3.60;99.90
22130;DHT22;11231;50.746;4.272;2023-04-03T05:45:52;3.70;99.90
22130;DHT22;11231;50.746;4.272;2023-04-03T05:48:20;3.90;99.90
22130;DHT22;11231;50.746;4.272;2023-04-03T05:50:46;4.40;99.90
22130;DHT22;11231;50.746;4.272;2023-04-03T05:53:22;5.20;99.90
22130;DHT22;11231;50.746;4.272;2023-04-03T05:55:49;6.30;99.90
22130;DHT22;11231;50.746;4.272;2023-04-03T05:58:15;7.30;99.90
22130;DHT22;11231;50.746;4.272;2023-04-03T06:00:42;8.10;99.90
22130;DHT22;11231;50.746;4.272;2023-04-03T06:03:08;8.70;99.90
22130;DHT22;11231;50.746;4.272;2023-04-03T06:05:34;9.20;99.90
22130;DHT22;11231;50.746;4.272;2023-04-03T06:08:00;9.90;99.90
22130;DHT22;11231;50.746;4.272;2023-04-03T06:10:26;10.50;99.90
22130;DHT22;11231;50.746;4.272;2023-04-03T06:12:52;11.20;99.90
22130;DHT22;11231;50.746;4.272;2023-04-03T06:15:17;11.60;99.90
22130;DHT22;11231;50.746;4.272;2023-04-03T06:17:43;11.50;99.90
22130;DHT22;11231;50.746;4.272;2023-04-03T06:20:09;11.20;99.90
22130;DHT22;11231;50.746;4.272;2023-04-03T06:22:35;10.50;99.90
22130;DHT22;11231;50.746;4.272;2023-04-03T06:25:02;9.80;99.90
22130;DHT22;11231;50.746;4.272;2023-04-03T06:27:27;9.30;99.90
22130;DHT22;11231;50.746;4.272;2023-04-03T06:29:53;8.80;99.90
22130;DHT22;11231;50.746;4.272;2023-04-03T06:32:19;8.30;99.90
22130;DHT22;11231;50.746;4.272;2023-04-03T06:34:45;8.00;99.90
22130;DHT22;11231;50.746;4.272;2023-04-03T06:37:20;7.80;99.90
22130;DHT22;11231;50.746;4.272;2023-04-03T06:39:46;7.70;99.90
22130;DHT22;11231;50.746;4.272;2023-04-03T06:42:12;7.60;99.90
22130;DHT22;11231;50.746;4.272;2023-04-03T06:44:47;7.50;99.90
22130;DHT22;11231;50.746;4.272;2023-04-03T06:47:13;7.20;99.90
22130;DHT22;11231;50.746;4.272;2023-04-03T06:49:39;7.70;99.90
22130;DHT22;11231;50.746;4.272;2023-04-03T06:52:05;9.40;99.90
22130;DHT22;11231;50.746;4.272;2023-04-03T06:54:31;12.20;99.90
22130;DHT22;11231;50.746;4.272;2023-04-03T06:56:57;14.70;99.90
22130;DHT22;11231;50.746;4.272;2023-04-03T06:59:23;16.20;99.90
22130;DHT22;11231;50.746;4.272;2023-04-03T07:01:49;17.00;99.90
22130;DHT22;11231;50.746;4.272;2023-04-03T07:04:15;17.40;99.90
22130;DHT22;11231;50.746;4.272;2023-04-03T07:06:41;17.70;99.90
22130;DHT22;11231;50.746;4.272;2023-04-03T07:09:08;17.80;99.90
22130;DHT22;11231;50.746;4.272;2023-04-03T07:11:35;18.00;99.90
22130;DHT22;11231;50.746;4.272;2023-04-03T07:14:02;18.30;99.30
22130;DHT22;11231;50.746;4.272;2023-04-03T07:16:27;18.80;98.00
22130;DHT22;11231;50.746;4.272;2023-04-03T07:18:56;19.70;94.60
22130;DHT22;11231;50.746;4.272;2023-04-03T07:21:23;19.80;93.20
22130;DHT22;11231;50.746;4.272;2023-04-03T07:23:49;19.80;90.90
22130;DHT22;11231;50.746;4.272;2023-04-03T07:26:14;20.50;90.10
22130;DHT22;11231;50.746;4.272;2023-04-03T07:28:40;20.10;88.90
22130;DHT22;11231;50.746;4.272;2023-04-03T07:31:08;20.40;84.60
22130;DHT22;11231;50.746;4.272;2023-04-03T07:33:37;20.30;87.20
22130;DHT22;11231;50.746;4.272;2023-04-03T07:36:03;18.50;84.60
22130;DHT22;11231;50.746;4.272;2023-04-03T07:38:30;17.80;90.50
22130;DHT22;11231;50.746;4.272;2023-04-03T07:40:56;19.10;91.20
22130;DHT22;11231;50.746;4.272;2023-04-03T07:43:22;18.80;84.90
22130;DHT22;11231;50.746;4.272;2023-04-03T07:45:50;18.10;88.70
22130;DHT22;11231;50.746;4.272;2023-04-03T07:48:17;17.40;90.60
22130;DHT22;11231;50.746;4.272;2023-04-03T07:50:43;16.90;91.40
22130;DHT22;11231;50.746;4.272;2023-04-03T07:53:09;16.70;93.10
22130;DHT22;11231;50.746;4.272;2023-04-03T07:55:35;17.10;94.30
22130;DHT22;11231;50.746;4.272;2023-04-03T07:58:11;17.90;94.20
22130;DHT22;11231;50.746;4.272;2023-04-03T08:00:37;18.80;91.30
22130;DHT22;11231;50.746;4.272;2023-04-03T08:03:03;19.30;85.90
22130;DHT22;11231;50.746;4.272;2023-04-03T08:05:29;18.50;87.20
22130;DHT22;11231;50.746;4.272;2023-04-03T08:07:55;18.90;86.60
22130;DHT22;11231;50.746;4.272;2023-04-03T08:10:21;18.10;85.30
22130;DHT22;11231;50.746;4.272;2023-04-03T08:12:47;17.00;91.20
22130;DHT22;11231;50.746;4.272;2023-04-03T08:15:13;17.00;91.30
22130;DHT22;11231;50.746;4.272;2023-04-03T08:17:39;16.40;90.80
22130;DHT22;11231;50.746;4.272;2023-04-03T08:20:06;16.70;92.70
22130;DHT22;11231;50.746;4.272;2023-04-03T08:22:33;16.40;91.40
22130;DHT22;11231;50.746;4.272;2023-04-03T08:24:59;16.60;91.50
22130;DHT22;11231;50.746;4.272;2023-04-03T08:27:25;16.40;90.40
22130;DHT22;11231;50.746;4.272;2023-04-03T08:29:52;16.00;90.90
22130;DHT22;11231;50.746;4.272;2023-04-03T08:32:18;15.90;91.50
22130;DHT22;11231;50.746;4.272;2023-04-03T08:34:44;16.60;90.50
22130;DHT22;11231;50.746;4.272;2023-04-03T08:37:10;16.70;89.20
22130;DHT22;11231;50.746;4.272;2023-04-03T08:39:36;16.50;91.40
22130;DHT22;11231;50.746;4.272;2023-04-03T08:42:10;16.50;91.00
22130;DHT22;11231;50.746;4.272;2023-04-03T08:44:46;17.00;91.80
22130;DHT22;11231;50.746;4.272;2023-04-03T08:47:40;17.50;84.40
22130;DHT22;11231;50.746;4.272;2023-04-03T08:50:15;18.30;83.20
22130;DHT22;11231;50.746;4.272;2023-04-03T08:52:45;17.10;82.80
22130;DHT22;11231;50.746;4.272;2023-04-03T08:55:22;16.60;86.90
22130;DHT22;11231;50.746;4.272;2023-04-03T08:57:48;15.60;91.10
22130;DHT22;11231;50.746;4.272;2023-04-03T09:00:22;16.00;92.00
22130;DHT22;11231;50.746;4.272;2023-04-03T09:02:51;17.20;88.10
22130;DHT22;11231;50.746;4.272;2023-04-03T09:05:20;17.40;83.50
22130;DHT22;11231;50.746;4.272;2023-04-03T09:07:52;16.50;84.10
22130;DHT22;11231;50.746;4.272;2023-04-03T09:10:27;16.60;85.50
22130;DHT22;11231;50.746;4.272;2023-04-03T09:13:01;16.10;85.10
22130;DHT22;11231;50.746;4.272;2023-04-03T09:15:29;15.80;87.40
22130;DHT22;11231;50.746;4.272;2023-04-03T09:18:05;16.30;87.90
22130;DHT22;11231;50.746;4.272;2023-04-03T09:20:39;16.60;87.60
22130;DHT22;11231;50.746;4.272;2023-04-03T09:25:44;15.80;88.80
22130;DHT22;11231;50.746;4.272;2023-04-03T09:28:10;14.40;94.70
22130;DHT22;11231;50.746;4.272;2023-04-03T09:30:36;13.60;99.20
22130;DHT22;11231;50.746;4.272;2023-04-03T09:33:03;12.70;98.60
22130;DHT22;11231;50.746;4.272;2023-04-03T09:35:30;12.30;99.90
22130;DHT22;11231;50.746;4.272;2023-04-03T09:38:00;11.90;99.90
22130;DHT22;11231;50.746;4.272;2023-04-03T09:42:56;11.60;99.90
22130;DHT22;11231;50.746;4.272;2023-04-03T09:48:19;11.60;99.90
22130;DHT22;11231;50.746;4.272;2023-04-03T09:53:44;11.40;99.90
22130;DHT22;11231;50.746;4.272;2023-04-03T09:58:46;13.60;99.90
22130;DHT22;11231;50.746;4.272;2023-04-03T10:04:15;16.10;96.90
22130;DHT22;11231;50.746;4.272;2023-04-03T10:06:43;17.80;90.90
22130;DHT22;11231;50.746;4.272;2023-04-03T10:09:27;16.90;90.30
22130;DHT22;11231;50.746;4.272;2023-04-03T10:12:02;16.80;90.90
22130;DHT22;11231;50.746;4.272;2023-04-03T10:14:34;17.40;90.80
22130;DHT22;11231;50.746;4.272;2023-04-03T10:19:44;16.90;85.60
22130;DHT22;11231;50.746;4.272;2023-04-03T10:22:16;17.60;86.80
22130;DHT22;11231;50.746;4.272;2023-04-03T10:25:18;17.60;86.20
22130;DHT22;11231;50.746;4.272;2023-04-03T10:27:55;17.70;83.10
22130;DHT22;11231;50.746;4.272;2023-04-03T10:30:51;17.30;79.90
22130;DHT22;11231;50.746;4.272;2023-04-03T10:39:05;17.10;80.90
22130;DHT22;11231;50.746;4.272;2023-04-03T10:41:50;17.20;77.60
22130;DHT22;11231;50.746;4.272;2023-04-03T10:44:41;16.80;80.00
22130;DHT22;11231;50.746;4.272;2023-04-03T10:47:32;16.30;79.80
22130;DHT22;11231;50.746;4.272;2023-04-03T10:53:01;16.80;81.30
22130;DHT22;11231;50.746;4.272;2023-04-03T10:55:34;16.50;79.20
22130;DHT22;11231;50.746;4.272;2023-04-03T10:58:02;16.60;78.50
22130;DHT22;11231;50.746;4.272;2023-04-03T11:00:42;16.30;73.50
22130;DHT22;11231;50.746;4.272;2023-04-03T11:03:24;16.40;73.00
22130;DHT22;11231;50.746;4.272;2023-04-03T11:05:53;16.60;74.60
22130;DHT22;11231;50.746;4.272;2023-04-03T11:08:32;16.60;74.80
22130;DHT22;11231;50.746;4.272;2023-04-03T11:11:20;16.20;71.90
22130;DHT22;11231;50.746;4.272;2023-04-03T11:14:03;16.00;71.10
22130;DHT22;11231;50.746;4.272;2023-04-03T11:16:34;15.40;73.50
22130;DHT22;11231;50.746;4.272;2023-04-03T11:21:46;16.10;73.90
22130;DHT22;11231;50.746;4.272;2023-04-03T11:24:26;16.20;72.80
22130;DHT22;11231;50.746;4.272;2023-04-03T11:26:54;17.00;70.70
22130;DHT22;11231;50.746;4.272;2023-04-03T11:29:26;17.30;70.70
22130;DHT22;11231;50.746;4.272;2023-04-03T11:34:47;17.40;66.80
22130;DHT22;11231;50.746;4.272;2023-04-03T11:37:35;17.20;65.10
22130;DHT22;11231;50.746;4.272;2023-04-03T11:42:46;17.20;68.10
22130;DHT22;11231;50.746;4.272;2023-04-03T11:47:53;16.60;71.10
22130;DHT22;11231;50.746;4.272;2023-04-03T11:53:26;15.90;74.00
22130;DHT22;11231;50.746;4.272;2023-04-03T11:56:03;15.90;75.10
22130;DHT22;11231;50.746;4.272;2023-04-03T11:58:31;15.90;75.80
22130;DHT22;11231;50.746;4.272;2023-04-03T12:01:42;15.50;73.70
22130;DHT22;11231;50.746;4.272;2023-04-03T12:04:11;15.20;74.60
22130;DHT22;11231;50.746;4.272;2023-04-03T12:11:52;15.60;70.60
22130;DHT22;11231;50.746;4.272;2023-04-03T12:14:18;15.70;71.60
22130;DHT22;11231;50.746;4.272;2023-04-03T12:16:46;15.70;69.90
22130;DHT22;11231;50.746;4.272;2023-04-03T12:33:13;14.90;69.60
22130;DHT22;11231;50.746;4.272;2023-04-03T12:35:30;14.90;71.10
22130;DHT22;11231;50.746;4.272;2023-04-03T12:43:25;15.00;72.80
22130;DHT22;11231;50.746;4.272;2023-04-03T12:46:03;15.30;73.10
22130;DHT22;11231;50.746;4.272;2023-04-03T12:48:33;14.70;70.40
22130;DHT22;11231;50.746;4.272;2023-04-03T12:51:00;13.70;72.10
22130;DHT22;11231;50.746;4.272;2023-04-03T12:53:31;12.90;75.10
22130;DHT22;11231;50.746;4.272;2023-04-03T12:56:25;12.80;79.90
22130;DHT22;11231;50.746;4.272;2023-04-03T12:58:54;12.60;77.20
22130;DHT22;11231;50.746;4.272;2023-04-03T13:01:24;12.30;83.00
22130;DHT22;11231;50.746;4.272;2023-04-03T13:03:55;12.10;82.50
22130;DHT22;11231;50.746;4.272;2023-04-03T13:06:32;11.90;83.30
22130;DHT22;11231;50.746;4.272;2023-04-03T13:09:00;11.80;90.20
22130;DHT22;11231;50.746;4.272;2023-04-03T13:11:59;11.90;83.00
22130;DHT22;11231;50.746;4.272;2023-04-03T13:14:27;11.60;80.20
22130;DHT22;11231;50.746;4.272;2023-04-03T13:16:59;11.30;80.70
22130;DHT22;11231;50.746;4.272;2023-04-03T13:19:27;11.30;79.50
22130;DHT22;11231;50.746;4.272;2023-04-03T13:22:06;11.40;79.10
22130;DHT22;11231;50.746;4.272;2023-04-03T13:24:35;11.60;78.80
22130;DHT22;11231;50.746;4.272;2023-04-03T13:27:02;11.40;76.10
22130;DHT22;11231;50.746;4.272;2023-04-03T13:29:31;11.40;77.10
22130;DHT22;11231;50.746;4.272;2023-04-03T13:32:00;11.30;74.40
22130;DHT22;11231;50.746;4.272;2023-04-03T13:34:29;11.30;80.00
22130;DHT22;11231;50.746;4.272;2023-04-03T13:36:59;11.60;82.40
22130;DHT22;11231;50.746;4.272;2023-04-03T13:39:34;11.60;76.40
22130;DHT22;11231;50.746;4.272;2023-04-03T13:42:15;11.40;77.70
22130;DHT22;11231;50.746;4.272;2023-04-03T13:44:42;11.40;78.30
22130;DHT22;11231;50.746;4.272;2023-04-03T13:47:15;11.40;77.00
22130;DHT22;11231;50.746;4.272;2023-04-03T13:49:44;11.40;76.90
22130;DHT22;11231;50.746;4.272;2023-04-03T13:52:38;11.40;74.10
22130;DHT22;11231;50.746;4.272;2023-04-03T13:55:22;11.40;75.10
22130;DHT22;11231;50.746;4.272;2023-04-03T13:57:59;11.30;76.60
22130;DHT22;11231;50.746;4.272;2023-04-03T14:03:28;11.60;73.10
22130;DHT22;11231;50.746;4.272;2023-04-03T14:05:55;11.50;72.80
22130;DHT22;11231;50.746;4.272;2023-04-03T14:08:21;11.50;70.20
22130;DHT22;11231;50.746;4.272;2023-04-03T14:10:47;11.50;71.60
22130;DHT22;11231;50.746;4.272;2023-04-03T14:13:17;11.50;70.90
22130;DHT22;11231;50.746;4.272;2023-04-03T14:15:45;11.50;75.50
22130;DHT22;11231;50.746;4.272;2023-04-03T14:18:17;11.40;74.20
22130;DHT22;11231;50.746;4.272;2023-04-03T14:20:44;11.20;74.00
22130;DHT22;11231;50.746;4.272;2023-04-03T14:23:09;11.10;76.20
22130;DHT22;11231;50.746;4.272;2023-04-03T14:25:36;11.10;76.40
22130;DHT22;11231;50.746;4.272;2023-04-03T14:28:19;11.10;77.40
22130;DHT22;11231;50.746;4.272;2023-04-03T14:30:48;11.20;76.70
22130;DHT22;11231;50.746;4.272;2023-04-03T14:33:17;11.10;74.80
22130;DHT22;11231;50.746;4.272;2023-04-03T14:35:43;11.20;77.50
22130;DHT22;11231;50.746;4.272;2023-04-03T14:38:23;11.20;77.60
22130;DHT22;11231;50.746;4.272;2023-04-03T14:40:50;11.20;78.30
22130;DHT22;11231;50.746;4.272;2023-04-03T14:43:16;11.20;80.30
22130;DHT22;11231;50.746;4.272;2023-04-03T14:45:43;11.30;78.50
22130;DHT22;11231;50.746;4.272;2023-04-03T14:48:21;11.30;77.40
22130;DHT22;11231;50.746;4.272;2023-04-03T14:50:48;11.30;78.30
22130;DHT22;11231;50.746;4.272;2023-04-03T14:53:14;11.30;81.10
22130;DHT22;11231;50.746;4.272;2023-04-03T14:55:43;11.30;75.50
22130;DHT22;11231;50.746;4.272;2023-04-03T14:58:13;11.30;74.80
22130;DHT22;11231;50.746;4.272;2023-04-03T15:00:40;11.30;75.70
22130;DHT22;11231;50.746;4.272;2023-04-03T15:03:05;11.30;77.80
22130;DHT22;11231;50.746;4.272;2023-04-03T15:05:31;11.30;75.70
22130;DHT22;11231;50.746;4.272;2023-04-03T15:07:57;11.40;76.80
22130;DHT22;11231;50.746;4.272;2023-04-03T15:10:27;11.50;77.10
22130;DHT22;11231;50.746;4.272;2023-04-03T15:12:53;11.60;75.40
22130;DHT22;11231;50.746;4.272;2023-04-03T15:15:21;11.50;71.80
22130;DHT22;11231;50.746;4.272;2023-04-03T15:17:51;11.50;73.00
22130;DHT22;11231;50.746;4.272;2023-04-03T15:20:21;11.50;74.60
22130;DHT22;11231;50.746;4.272;2023-04-03T15:22:48;11.40;73.70
22130;DHT22;11231;50.746;4.272;2023-04-03T15:25:14;11.20;73.40
22130;DHT22;11231;50.746;4.272;2023-04-03T15:27:40;11.10;75.70
22130;DHT22;11231;50.746;4.272;2023-04-03T15:30:11;11.10;75.00
22130;DHT22;11231;50.746;4.272;2023-04-03T15:32:38;11.20;74.10
22130;DHT22;11231;50.746;4.272;2023-04-03T15:35:04;11.20;76.00
22130;DHT22;11231;50.746;4.272;2023-04-03T15:37:30;11.30;74.90
22130;DHT22;11231;50.746;4.272;2023-04-03T15:39:56;11.20;73.50
22130;DHT22;11231;50.746;4.272;2023-04-03T15:42:22;11.10;75.90
22130;DHT22;11231;50.746;4.272;2023-04-03T15:44:48;11.10;73.40
22130;DHT22;11231;50.746;4.272;2023-04-03T15:47:13;11.10;73.70
22130;DHT22;11231;50.746;4.272;2023-04-03T15:49:39;11.10;74.70
22130;DHT22;11231;50.746;4.272;2023-04-03T15:52:05;11.00;77.50
22130;DHT22;11231;50.746;4.272;2023-04-03T15:54:31;11.00;78.10
22130;DHT22;11231;50.746;4.272;2023-04-03T15:56:57;11.00;79.30
22130;DHT22;11231;50.746;4.272;2023-04-03T15:59:23;11.10;79.70
22130;DHT22;11231;50.746;4.272;2023-04-03T16:01:49;11.00;81.40
22130;DHT22;11231;50.746;4.272;2023-04-03T16:04:16;11.00;83.20
22130;DHT22;11231;50.746;4.272;2023-04-03T16:06:42;11.00;84.10
22130;DHT22;11231;50.746;4.272;2023-04-03T16:09:08;11.00;82.80
22130;DHT22;11231;50.746;4.272;2023-04-03T16:11:35;11.00;80.90
22130;DHT22;11231;50.746;4.272;2023-04-03T16:14:02;11.10;83.00
22130;DHT22;11231;50.746;4.272;2023-04-03T16:16:28;11.20;83.80
22130;DHT22;11231;50.746;4.272;2023-04-03T16:18:55;11.30;84.30
22130;DHT22;11231;50.746;4.272;2023-04-03T16:21:21;11.30;83.70
22130;DHT22;11231;50.746;4.272;2023-04-03T16:23:47;11.30;81.10
22130;DHT22;11231;50.746;4.272;2023-04-03T16:26:13;11.10;82.00
22130;DHT22;11231;50.746;4.272;2023-04-03T16:28:39;11.10;85.20
22130;DHT22;11231;50.746;4.272;2023-04-03T16:31:06;11.10;83.30
22130;DHT22;11231;50.746;4.272;2023-04-03T16:33:32;11.10;83.70
22130;DHT22;11231;50.746;4.272;2023-04-03T16:35:58;11.10;86.20
22130;DHT22;11231;50.746;4.272;2023-04-03T16:38:24;11.10;86.20
22130;DHT22;11231;50.746;4.272;2023-04-03T16:40:49;11.10;87.80
22130;DHT22;11231;50.746;4.272;2023-04-03T16:43:15;11.00;86.00
22130;DHT22;11231;50.746;4.272;2023-04-03T16:45:42;10.80;87.80
22130;DHT22;11231;50.746;4.272;2023-04-03T16:48:08;10.80;89.10
22130;DHT22;11231;50.746;4.272;2023-04-03T16:50:34;10.80;90.20
22130;DHT22;11231;50.746;4.272;2023-04-03T16:52:59;10.70;90.20
22130;DHT22;11231;50.746;4.272;2023-04-03T16:55:25;10.80;90.70
22130;DHT22;11231;50.746;4.272;2023-04-03T16:57:51;10.70;90.20
22130;DHT22;11231;50.746;4.272;2023-04-03T17:00:16;10.70;90.60
22130;DHT22;11231;50.746;4.272;2023-04-03T17:02:42;10.70;92.30
22130;DHT22;11231;50.746;4.272;2023-04-03T17:05:08;10.70;91.60